createdAt,value
2022-10-07T00:01:04.073Z,4.75
2022-10-07T00:02:36.132Z,4.95
2022-10-07T00:04:08.114Z,7.38
2022-10-07T00:05:41.179Z,5.18
2022-10-07T00:07:15.097Z,9.20
2022-10-07T00:08:49.176Z,6.82
2022-10-07T00:10:21.157Z,5.25
2022-10-07T00:11:53.149Z,6.47
2022-10-07T00:13:25.207Z,5.93
2022-10-07T00:14:57.249Z,5.95
2022-10-07T00:16:32.525Z,6.05
2022-10-07T00:18:04.714Z,5.30
2022-10-07T00:19:36.785Z,4.13
2022-10-07T00:21:14.117Z,6.35
2022-10-07T00:22:46.129Z,6.10
2022-10-07T00:24:18.111Z,6.35
2022-10-07T00:25:50.123Z,7.55
2022-10-07T00:27:22.097Z,5.18
2022-10-07T00:28:54.312Z,6.05
2022-10-07T00:30:26.379Z,5.20
2022-10-07T00:31:58.687Z,4.15
2022-10-07T00:33:32.016Z,8.85
2022-10-07T00:35:04.382Z,5.85
2022-10-07T00:36:37.753Z,4.90
2022-10-07T00:38:09.808Z,5.18
2022-10-07T00:39:42.210Z,5.95
2022-10-07T00:41:19.636Z,6.95
2022-10-07T00:42:51.606Z,5.22
2022-10-07T00:44:32.823Z,6.72
2022-10-07T00:46:29.877Z,4.82
2022-10-07T00:48:01.950Z,4.63
2022-10-07T00:49:41.019Z,5.35
2022-10-07T00:51:16.673Z,5.03
2022-10-07T00:52:53.256Z,6.55
2022-10-07T00:54:25.407Z,6.63
2022-10-07T00:55:58.333Z,3.85
2022-10-07T00:57:32.304Z,4.95
2022-10-07T00:59:06.867Z,4.47
2022-10-07T01:00:39.987Z,4.55
2022-10-07T01:02:12.153Z,4.82
2022-10-07T01:03:44.466Z,5.05
2022-10-07T01:05:16.745Z,4.65
2022-10-07T01:06:48.729Z,6.70
2022-10-07T01:08:21.274Z,4.45
2022-10-07T01:09:54.319Z,3.93
2022-10-07T01:12:08.386Z,4.43
2022-10-07T01:13:49.954Z,6.78
2022-10-07T01:15:43.269Z,4.75
2022-10-07T01:17:22.545Z,6.07
2022-10-07T01:19:10.277Z,4.50
2022-10-07T01:21:01.377Z,4.97
2022-10-07T01:23:02.246Z,6.13
2022-10-07T01:24:49.199Z,4.65
2022-10-07T01:26:47.878Z,5.57
2022-10-07T01:28:32.519Z,5.03
2022-10-07T01:30:07.036Z,6.25
2022-10-07T01:32:08.403Z,5.47
2022-10-07T01:33:41.376Z,5.68
2022-10-07T01:36:52.955Z,8.77
2022-10-07T01:38:26.720Z,4.88
2022-10-07T01:40:02.747Z,5.20
2022-10-07T01:41:37.161Z,5.03
2022-10-07T01:43:09.341Z,5.72
2022-10-07T01:44:41.713Z,5.55
2022-10-07T01:46:18.650Z,4.53
2022-10-07T01:47:51.731Z,5.82
2022-10-07T01:49:23.950Z,4.55
2022-10-07T01:50:57.402Z,7.28
2022-10-07T01:54:27.993Z,5.72
2022-10-07T01:56:10.650Z,3.97
2022-10-07T01:57:56.812Z,5.68
2022-10-07T01:59:47.381Z,4.95
2022-10-07T02:01:25.397Z,5.70
2022-10-07T02:03:34.204Z,4.93
2022-10-07T02:05:20.143Z,5.45
2022-10-07T02:07:18.478Z,3.92
2022-10-07T02:08:53.094Z,4.78
2022-10-07T02:10:32.041Z,8.68
2022-10-07T02:12:25.550Z,6.28
2022-10-07T02:14:01.223Z,5.05
2022-10-07T02:15:40.281Z,4.88
2022-10-07T02:17:17.825Z,5.28
2022-10-07T02:18:51.978Z,4.18
2022-10-07T02:20:27.843Z,4.80
2022-10-07T02:22:03.053Z,4.25
2022-10-07T02:23:38.229Z,4.55
2022-10-07T02:25:11.743Z,4.22
2022-10-07T02:28:20.852Z,6.15
2022-10-07T02:29:57.718Z,4.35
2022-10-07T02:31:31.262Z,4.65
2022-10-07T02:33:05.638Z,4.93
2022-10-07T02:34:38.769Z,4.82
2022-10-07T02:36:17.078Z,5.45
2022-10-07T02:37:50.250Z,5.20
2022-10-07T02:41:09.179Z,5.22
2022-10-07T02:42:55.807Z,5.88
2022-10-07T02:44:41.582Z,5.50
2022-10-07T02:46:17.357Z,3.88
2022-10-07T02:47:52.956Z,3.72
2022-10-07T02:49:26.765Z,3.13
2022-10-07T02:51:01.426Z,4.97
2022-10-07T02:52:33.648Z,4.15
2022-10-07T02:54:05.700Z,4.20
2022-10-07T02:55:37.941Z,5.13
2022-10-07T02:57:11.574Z,4.47
2022-10-07T02:58:46.188Z,4.40
2022-10-07T03:00:19.321Z,3.85
2022-10-07T03:01:52.864Z,4.75
2022-10-07T03:03:26.023Z,5.10
2022-10-07T03:04:58.628Z,5.20
2022-10-07T03:06:30.794Z,4.07
2022-10-07T03:08:09.254Z,4.18
2022-10-07T03:09:42.334Z,4.07
2022-10-07T03:11:14.317Z,4.97
2022-10-07T03:12:46.340Z,5.68
2022-10-07T03:15:52.314Z,4.57
2022-10-07T03:17:24.666Z,5.40
2022-10-07T03:18:56.677Z,4.47
2022-10-07T03:20:30.443Z,3.80
2022-10-07T03:22:03.099Z,3.92
2022-10-07T03:23:35.306Z,4.55
2022-10-07T03:25:07.714Z,5.43
2022-10-07T03:26:40.199Z,4.72
2022-10-07T03:28:12.300Z,4.20
2022-10-07T03:29:44.418Z,4.25
2022-10-07T03:31:16.589Z,5.10
2022-10-07T03:32:50.296Z,5.20
2022-10-07T03:34:23.899Z,4.10
2022-10-07T03:37:30.103Z,4.95
2022-10-07T03:39:02.036Z,5.25
2022-10-07T03:40:34.869Z,4.15
2022-10-07T03:42:06.861Z,5.38
2022-10-07T03:43:38.826Z,4.70
2022-10-07T03:45:11.111Z,2.92
2022-10-07T03:46:43.130Z,4.10
2022-10-07T03:49:50.236Z,5.55
2022-10-07T03:51:22.255Z,3.97
2022-10-07T03:52:54.309Z,4.82
2022-10-07T03:54:26.665Z,4.15
2022-10-07T03:55:58.758Z,4.50
2022-10-07T03:57:49.355Z,4.72
2022-10-07T03:59:21.408Z,4.88
2022-10-07T04:00:53.664Z,4.97
2022-10-07T04:02:26.157Z,4.82
2022-10-07T04:04:00.727Z,5.93
2022-10-07T04:05:32.644Z,5.35
2022-10-07T04:07:04.701Z,6.82
2022-10-07T04:08:36.893Z,6.88
2022-10-07T04:10:09.801Z,6.57
2022-10-07T04:11:42.426Z,4.38
2022-10-07T04:13:14.481Z,5.20
2022-10-07T04:14:46.600Z,5.82
2022-10-07T04:16:18.882Z,5.03
2022-10-07T04:19:23.796Z,4.68
2022-10-07T04:21:00.337Z,4.82
2022-10-07T04:22:32.389Z,4.50
2022-10-07T04:24:04.462Z,5.75
2022-10-07T04:25:38.021Z,4.35
2022-10-07T04:28:42.846Z,3.22
2022-10-07T04:30:16.028Z,2.88
2022-10-07T04:31:48.244Z,3.42
2022-10-07T04:33:22.273Z,4.30
2022-10-07T04:34:54.269Z,4.13
2022-10-07T04:36:27.591Z,4.35
2022-10-07T04:37:59.744Z,4.25
2022-10-07T04:39:49.271Z,3.95
2022-10-07T04:41:23.751Z,4.05
2022-10-07T04:43:14.437Z,7.00
2022-10-07T04:44:46.458Z,3.25
2022-10-07T04:46:18.675Z,3.72
2022-10-07T04:47:53.855Z,6.15
2022-10-07T04:49:26.466Z,4.40
2022-10-07T04:51:09.387Z,5.80
2022-10-07T04:52:42.828Z,3.25
2022-10-07T04:54:14.922Z,3.95
2022-10-07T04:55:52.114Z,7.40
2022-10-07T04:57:24.168Z,6.07
2022-10-07T04:58:56.421Z,3.80
2022-10-07T05:00:29.569Z,5.38
2022-10-07T05:02:02.308Z,4.93
2022-10-07T05:03:36.570Z,4.60
2022-10-07T05:05:10.046Z,4.15
2022-10-07T05:08:15.821Z,4.85
2022-10-07T05:09:47.854Z,5.13
2022-10-07T05:11:19.852Z,4.63
2022-10-07T05:12:55.936Z,3.85
2022-10-07T05:14:28.408Z,5.38
2022-10-07T05:16:02.174Z,6.50
2022-10-07T05:19:06.954Z,6.70
2022-10-07T05:20:41.044Z,4.18
2022-10-07T05:22:13.074Z,3.88
2022-10-07T05:23:45.530Z,5.18
2022-10-07T05:25:17.829Z,5.13
2022-10-07T05:26:51.223Z,5.78
2022-10-07T05:28:24.391Z,4.97
2022-10-07T05:29:58.349Z,7.00
2022-10-07T05:31:30.684Z,6.60
2022-10-07T05:33:03.208Z,6.63
2022-10-07T05:34:35.721Z,6.05
2022-10-07T05:36:09.312Z,6.20
2022-10-07T05:37:41.444Z,5.75
2022-10-07T05:39:13.523Z,5.97
2022-10-07T05:40:46.048Z,5.32
2022-10-07T05:42:18.478Z,4.73
2022-10-07T05:43:50.837Z,4.95
2022-10-07T05:45:22.877Z,5.70
2022-10-07T05:47:09.153Z,6.53
2022-10-07T05:48:41.908Z,6.68
2022-10-07T05:50:14.552Z,8.23
2022-10-07T05:51:46.634Z,6.80
2022-10-07T05:53:18.863Z,5.80
2022-10-07T05:54:52.178Z,5.90
2022-10-07T05:56:24.327Z,5.43
2022-10-07T05:57:56.437Z,5.95
2022-10-07T05:59:28.449Z,5.63
2022-10-07T06:01:10.161Z,6.55
2022-10-07T06:02:46.745Z,5.88
2022-10-07T06:04:20.159Z,7.15
2022-10-07T06:05:53.278Z,4.75
2022-10-07T06:07:29.314Z,5.35
2022-10-07T06:09:28.107Z,5.80
2022-10-07T06:11:22.927Z,6.75
2022-10-07T06:13:10.201Z,6.38
2022-10-07T06:14:42.429Z,5.93
2022-10-07T06:16:14.521Z,5.32
2022-10-07T06:17:47.556Z,7.57
2022-10-07T06:21:00.181Z,5.35
2022-10-07T06:22:32.200Z,5.25
2022-10-07T06:24:04.393Z,5.88
2022-10-07T06:25:36.377Z,5.78
2022-10-07T06:27:08.866Z,6.90
2022-10-07T06:28:42.537Z,6.47
2022-10-07T06:30:14.746Z,8.15
2022-10-07T06:31:46.896Z,6.30
2022-10-07T06:33:19.510Z,6.30
2022-10-07T06:34:52.101Z,5.07
2022-10-07T06:36:24.438Z,5.77
2022-10-07T06:37:56.586Z,7.40
2022-10-07T06:39:29.008Z,5.05
2022-10-07T06:41:02.280Z,6.82
2022-10-07T06:42:34.537Z,6.88
2022-10-07T06:44:07.217Z,5.50
2022-10-07T06:45:39.660Z,7.28
2022-10-07T06:47:23.075Z,9.48
2022-10-07T06:48:55.492Z,6.18
2022-10-07T06:50:27.713Z,8.85
2022-10-07T06:51:59.977Z,6.80
2022-10-07T06:53:32.874Z,7.22
2022-10-07T06:55:05.414Z,6.65
2022-10-07T06:56:38.074Z,5.10
2022-10-07T06:58:11.788Z,5.57
2022-10-07T06:59:44.621Z,11.43
2022-10-07T07:01:17.295Z,11.60
2022-10-07T07:02:49.652Z,7.18
2022-10-07T07:04:22.180Z,10.25
2022-10-07T07:05:57.770Z,9.35
2022-10-07T07:07:30.127Z,8.95
2022-10-07T07:09:05.027Z,39.85
2022-10-07T07:10:38.873Z,18.38
2022-10-07T07:12:11.086Z,16.15
2022-10-07T07:13:45.359Z,16.40
2022-10-07T07:15:18.400Z,13.80
2022-10-07T07:16:50.710Z,9.30
2022-10-07T07:18:23.251Z,8.68
2022-10-07T07:19:55.953Z,7.63
2022-10-07T07:21:33.897Z,8.60
2022-10-07T07:23:08.279Z,6.63
2022-10-07T07:24:40.627Z,7.30
2022-10-07T07:26:13.561Z,9.00
2022-10-07T07:27:50.299Z,8.52
2022-10-07T07:29:24.908Z,9.25
2022-10-07T07:30:57.276Z,7.80
2022-10-07T07:32:32.612Z,9.77
2022-10-07T07:34:11.864Z,8.00
2022-10-07T07:35:45.334Z,6.10
2022-10-07T07:38:54.875Z,6.95
2022-10-07T07:40:27.306Z,10.73
2022-10-07T07:41:59.625Z,5.63
2022-10-07T07:43:32.290Z,4.85
2022-10-07T07:45:04.631Z,5.70
2022-10-07T07:46:42.113Z,7.65
2022-10-07T07:48:15.749Z,8.57
2022-10-07T07:49:50.588Z,6.70
2022-10-07T07:51:23.136Z,5.97
2022-10-07T07:52:57.522Z,6.70
2022-10-07T07:54:30.070Z,7.18
2022-10-07T07:56:03.585Z,5.80
2022-10-07T07:57:36.446Z,9.88
2022-10-07T07:59:09.092Z,6.35
2022-10-07T08:00:41.691Z,8.13
2022-10-07T08:02:14.075Z,6.13
2022-10-07T08:03:47.979Z,6.60
2022-10-07T08:05:23.861Z,5.68
2022-10-07T08:06:56.660Z,8.43
2022-10-07T08:08:30.584Z,5.93
2022-10-07T08:10:03.013Z,6.18
2022-10-07T08:11:35.592Z,6.60
2022-10-07T08:13:08.538Z,7.85
2022-10-07T08:14:41.681Z,8.85
2022-10-07T08:16:18.506Z,8.20
2022-10-07T08:17:50.588Z,7.35
2022-10-07T08:19:22.726Z,6.72
2022-10-07T08:21:00.220Z,6.50
2022-10-07T08:22:32.276Z,5.80
2022-10-07T08:24:06.115Z,6.60
2022-10-07T08:25:38.601Z,5.28
2022-10-07T08:27:10.972Z,6.63
2022-10-07T08:28:43.193Z,6.15
2022-10-07T08:30:18.056Z,6.13
2022-10-07T08:31:50.439Z,6.28
2022-10-07T08:33:23.356Z,6.00
2022-10-07T08:34:58.195Z,8.50
2022-10-07T08:36:33.181Z,7.60
2022-10-07T08:38:05.397Z,6.90
2022-10-07T08:39:37.766Z,5.78
2022-10-07T08:41:10.293Z,5.78
2022-10-07T08:42:43.494Z,5.00
2022-10-07T08:44:18.150Z,5.40
2022-10-07T08:45:52.229Z,7.28
2022-10-07T08:47:28.226Z,6.00
2022-10-07T08:49:05.881Z,7.10
2022-10-07T08:52:25.948Z,9.05
2022-10-07T08:54:01.219Z,9.15
2022-10-07T08:55:44.283Z,8.15
2022-10-07T08:57:51.092Z,6.03
2022-10-07T08:59:34.382Z,6.10
2022-10-07T09:01:22.893Z,7.10
2022-10-07T09:03:10.226Z,7.60
2022-10-07T09:05:20.066Z,6.55
2022-10-07T09:07:25.428Z,6.35
2022-10-07T09:09:06.948Z,6.53
2022-10-07T09:10:43.231Z,8.38
2022-10-07T09:12:44.136Z,6.70
2022-10-07T09:14:19.161Z,5.78
2022-10-07T09:16:06.927Z,7.25
2022-10-07T09:17:44.454Z,6.03
2022-10-07T09:19:41.350Z,6.60
2022-10-07T09:21:17.618Z,6.40
2022-10-07T09:22:53.701Z,4.78
2022-10-07T09:24:30.752Z,6.28
2022-10-07T09:26:10.867Z,7.00
2022-10-07T09:27:43.481Z,8.68
2022-10-07T09:29:19.223Z,5.65
2022-10-07T09:30:51.612Z,6.28
2022-10-07T09:32:24.025Z,6.10
2022-10-07T09:33:56.575Z,5.90
2022-10-07T09:35:34.463Z,8.60
2022-10-07T09:37:22.821Z,6.68
2022-10-07T09:38:55.214Z,6.93
2022-10-07T09:41:06.425Z,6.25
2022-10-07T09:42:43.672Z,7.03
2022-10-07T09:44:15.858Z,6.40
2022-10-07T09:45:48.287Z,7.05
2022-10-07T09:47:23.672Z,5.83
2022-10-07T09:50:44.307Z,9.40
2022-10-07T09:52:16.590Z,5.72
2022-10-07T09:54:03.949Z,6.88
2022-10-07T09:55:43.870Z,6.15
2022-10-07T09:57:24.873Z,5.53
2022-10-07T09:59:21.154Z,8.18
2022-10-07T10:00:56.393Z,11.23
2022-10-07T10:02:31.932Z,6.93
2022-10-07T10:04:04.282Z,8.05
2022-10-07T10:05:42.202Z,6.95
2022-10-07T10:07:24.292Z,7.05
2022-10-07T10:08:57.974Z,6.28
2022-10-07T10:10:36.619Z,6.30
2022-10-07T10:12:14.112Z,6.78
2022-10-07T10:13:47.512Z,6.45
2022-10-07T10:15:39.059Z,6.80
2022-10-07T10:17:22.060Z,5.32
2022-10-07T10:18:56.228Z,6.65
2022-10-07T10:20:33.220Z,6.40
2022-10-07T10:22:05.734Z,5.72
2022-10-07T10:23:47.971Z,6.65
2022-10-07T10:25:47.623Z,7.60
2022-10-07T10:27:26.999Z,7.65
2022-10-07T10:29:08.454Z,5.30
2022-10-07T10:30:53.026Z,5.75
2022-10-07T10:33:04.623Z,6.93
2022-10-07T10:34:56.251Z,8.13
2022-10-07T10:36:30.764Z,6.00
2022-10-07T10:38:22.085Z,6.78
2022-10-07T10:40:16.841Z,9.00
2022-10-07T10:41:53.992Z,5.90
2022-10-07T10:43:26.225Z,7.32
2022-10-07T10:45:08.175Z,6.93
2022-10-07T10:46:55.183Z,5.57
2022-10-07T10:48:38.768Z,7.03
2022-10-07T10:50:28.324Z,5.68
2022-10-07T10:52:20.520Z,6.15
2022-10-07T10:55:46.843Z,6.95
2022-10-07T10:57:32.088Z,6.90
2022-10-07T10:59:09.807Z,7.28
2022-10-07T11:00:51.280Z,8.27
2022-10-07T11:02:34.110Z,6.30
2022-10-07T11:04:06.521Z,6.17
2022-10-07T11:05:40.898Z,5.23
2022-10-07T11:07:36.131Z,9.88
2022-10-07T11:09:16.606Z,6.60
2022-10-07T11:10:51.797Z,5.55
2022-10-07T11:12:28.421Z,7.22
2022-10-07T11:14:04.319Z,6.88
2022-10-07T11:15:41.113Z,7.18
2022-10-07T11:17:14.293Z,5.88
2022-10-07T11:18:49.500Z,7.90
2022-10-07T11:20:32.627Z,7.00
2022-10-07T11:22:05.560Z,6.57
2022-10-07T11:24:04.535Z,6.93
2022-10-07T11:25:37.289Z,5.20
2022-10-07T11:27:15.422Z,8.05
2022-10-07T11:28:50.427Z,7.88
2022-10-07T11:30:32.323Z,6.97
2022-10-07T11:32:23.758Z,7.00
2022-10-07T11:34:14.714Z,5.97
2022-10-07T11:35:54.665Z,8.05
2022-10-07T11:37:48.248Z,7.55
2022-10-07T11:39:21.643Z,5.15
2022-10-07T11:40:56.935Z,6.97
2022-10-07T11:42:31.763Z,6.90
2022-10-07T11:44:10.200Z,9.52
2022-10-07T11:45:50.167Z,6.07
2022-10-07T11:47:25.933Z,6.00
2022-10-07T11:49:05.785Z,6.03
2022-10-07T11:50:45.092Z,7.40
2022-10-07T11:52:27.287Z,9.38
2022-10-07T11:54:03.447Z,6.28
2022-10-07T11:55:44.654Z,6.50
2022-10-07T11:57:21.470Z,6.95
2022-10-07T11:59:05.772Z,6.88
2022-10-07T12:00:40.776Z,6.78
2022-10-07T12:02:39.072Z,7.13
2022-10-07T12:04:29.259Z,6.35
2022-10-07T12:06:10.791Z,6.60
2022-10-07T12:07:43.227Z,8.13
2022-10-07T12:09:53.119Z,8.00
2022-10-07T12:11:37.481Z,5.88
2022-10-07T12:13:09.844Z,6.35
2022-10-07T12:14:44.342Z,6.07
2022-10-07T12:16:29.142Z,6.07
2022-10-07T12:18:04.233Z,5.90
2022-10-07T12:19:36.559Z,7.70
2022-10-07T12:21:09.154Z,6.07
2022-10-07T12:22:41.587Z,6.00
2022-10-07T12:24:16.210Z,6.20
2022-10-07T12:25:56.313Z,6.43
2022-10-07T12:27:30.249Z,7.30
2022-10-07T12:29:03.820Z,8.13
2022-10-07T12:30:42.899Z,7.13
2022-10-07T12:32:47.116Z,8.13
2022-10-07T12:34:28.777Z,7.03
2022-10-07T12:36:29.867Z,7.70
2022-10-07T12:38:11.145Z,6.85
2022-10-07T12:39:43.467Z,5.40
2022-10-07T12:41:23.446Z,6.25
2022-10-07T12:43:01.452Z,6.32
2022-10-07T12:44:38.978Z,6.47
2022-10-07T12:46:15.634Z,6.10
2022-10-07T12:47:49.173Z,5.63
2022-10-07T12:49:42.191Z,6.00
2022-10-07T12:51:19.835Z,6.50
2022-10-07T12:52:56.245Z,6.72
2022-10-07T12:54:28.402Z,6.10
2022-10-07T12:56:00.920Z,6.28
2022-10-07T12:57:39.093Z,6.55
2022-10-07T12:59:48.505Z,6.68
2022-10-07T13:01:40.526Z,6.22
2022-10-07T13:03:42.074Z,7.13
2022-10-07T13:05:51.760Z,6.97
2022-10-07T13:07:55.147Z,6.78
2022-10-07T13:09:30.258Z,5.97
2022-10-07T13:11:14.367Z,5.95
2022-10-07T13:13:07.462Z,7.15
2022-10-07T13:14:49.709Z,7.53
2022-10-07T13:16:34.539Z,7.13
2022-10-07T13:18:23.152Z,7.15
2022-10-07T13:20:16.427Z,5.88
2022-10-07T13:21:51.828Z,18.23
2022-10-07T13:23:27.208Z,9.23
2022-10-07T13:25:01.933Z,6.70
2022-10-07T13:26:34.272Z,6.20
2022-10-07T13:28:07.667Z,5.95
2022-10-07T13:29:40.134Z,7.85
2022-10-07T13:31:36.099Z,8.68
2022-10-07T13:33:26.972Z,7.30
2022-10-07T14:09:58.977Z,7.13
2022-10-07T14:11:31.505Z,6.60
2022-10-07T14:13:10.561Z,5.97
2022-10-07T14:14:56.389Z,5.70
2022-10-07T14:16:28.792Z,5.97
2022-10-07T14:18:09.725Z,8.75
2022-10-07T14:19:42.047Z,7.07
2022-10-07T14:21:17.964Z,7.20
2022-10-07T14:23:28.777Z,6.82
2022-10-07T14:25:04.795Z,7.30
2022-10-07T14:26:44.095Z,7.90
2022-10-07T14:28:28.812Z,6.95
2022-10-07T14:30:01.979Z,6.43
2022-10-07T14:31:52.831Z,7.05
2022-10-07T14:33:54.500Z,9.20
2022-10-07T14:35:27.472Z,7.47
2022-10-07T14:37:08.735Z,7.20
2022-10-07T14:38:42.772Z,7.57
2022-10-07T14:40:20.158Z,6.35
2022-10-07T14:41:52.543Z,6.72
2022-10-07T14:43:32.335Z,7.00
2022-10-07T14:45:08.388Z,7.78
2022-10-07T14:46:40.727Z,6.97
2022-10-07T14:48:14.421Z,8.32
2022-10-07T14:49:46.969Z,7.50
2022-10-07T14:51:25.420Z,6.53
2022-10-07T14:52:58.586Z,7.28
2022-10-07T14:54:31.292Z,6.18
2022-10-07T14:56:04.552Z,6.50
2022-10-07T14:59:14.713Z,7.65
2022-10-07T15:00:47.492Z,8.25
2022-10-07T15:02:20.293Z,6.20
2022-10-07T15:03:53.238Z,8.35
2022-10-07T15:05:28.611Z,6.78
2022-10-07T15:07:00.888Z,7.72
2022-10-07T15:08:33.380Z,7.13
2022-10-07T15:10:12.291Z,7.70
2022-10-07T15:11:45.212Z,6.38
2022-10-07T15:13:17.306Z,6.10
2022-10-07T15:14:49.514Z,9.20
2022-10-07T15:16:24.468Z,7.57
2022-10-07T15:17:56.787Z,7.53
2022-10-07T15:19:29.110Z,7.40
2022-10-07T15:21:01.576Z,8.32
2022-10-07T15:22:33.966Z,9.18
2022-10-07T15:24:06.616Z,8.47
2022-10-07T15:25:40.620Z,6.82
2022-10-07T15:27:13.014Z,6.70
2022-10-07T15:28:45.457Z,7.30
2022-10-07T15:30:17.718Z,7.78
2022-10-07T15:31:52.584Z,7.15
2022-10-07T15:33:24.876Z,9.45
2022-10-07T15:34:58.536Z,7.90
2022-10-07T15:36:33.008Z,7.93
2022-10-07T15:38:05.301Z,12.52
2022-10-07T15:39:39.791Z,7.15
2022-10-07T15:41:29.428Z,7.10
2022-10-07T15:43:01.773Z,8.55
2022-10-07T15:44:34.031Z,7.10
2022-10-07T15:46:06.595Z,7.72
2022-10-07T15:47:39.702Z,7.45
2022-10-07T15:49:12.119Z,8.10
2022-10-07T15:50:48.813Z,10.67
2022-10-07T15:52:21.432Z,8.48
2022-10-07T15:53:54.746Z,8.77
2022-10-07T15:55:26.883Z,7.82
2022-10-07T15:56:59.419Z,17.40
2022-10-07T15:58:31.619Z,26.58
2022-10-07T16:00:05.296Z,28.20
2022-10-07T16:01:37.861Z,24.55
2022-10-07T16:03:10.329Z,21.48
2022-10-07T16:04:43.268Z,28.80
2022-10-07T16:06:18.698Z,20.30
2022-10-07T16:07:50.855Z,19.33
2022-10-07T16:09:23.763Z,17.13
2022-10-07T16:10:56.060Z,18.90
2022-10-07T16:12:28.217Z,15.07
2022-10-07T16:14:06.740Z,19.13
2022-10-07T16:15:39.113Z,13.15
2022-10-07T16:17:11.510Z,16.60
2022-10-07T16:18:45.784Z,14.13
2022-10-07T16:20:19.108Z,14.95
2022-10-07T16:23:23.512Z,15.63
2022-10-07T16:24:56.014Z,13.98
2022-10-07T16:26:30.742Z,13.87
2022-10-07T16:28:21.230Z,13.85
2022-10-07T16:30:11.791Z,15.70
2022-10-07T16:31:45.391Z,12.98
2022-10-07T16:33:19.049Z,13.73
2022-10-07T16:34:52.045Z,14.63
2022-10-07T16:36:25.047Z,13.20
2022-10-07T16:37:57.607Z,13.25
2022-10-07T16:39:29.933Z,15.13
2022-10-07T16:41:02.707Z,13.63
2022-10-07T16:42:35.053Z,12.05
2022-10-07T16:44:08.477Z,14.60
2022-10-07T16:47:13.421Z,12.90
2022-10-07T16:48:47.288Z,16.73
2022-10-07T16:50:21.250Z,12.63
2022-10-07T16:51:53.459Z,11.40
2022-10-07T16:53:27.575Z,13.18
2022-10-07T16:55:00.639Z,12.63
2022-10-07T16:56:35.621Z,14.25
2022-10-07T16:58:08.028Z,15.15
2022-10-07T16:59:40.418Z,11.15
2022-10-07T17:01:15.024Z,13.57
2022-10-07T17:02:47.322Z,13.98
2022-10-07T17:04:19.834Z,14.68
2022-10-07T17:05:58.793Z,12.85
2022-10-07T17:07:31.098Z,14.02
2022-10-07T17:09:04.864Z,12.82
2022-10-07T17:10:37.524Z,10.07
2022-10-07T17:12:09.925Z,11.20
2022-10-07T17:13:42.024Z,13.73
2022-10-07T17:15:14.392Z,11.32
2022-10-07T17:16:49.355Z,11.85
2022-10-07T17:18:21.799Z,10.85
2022-10-07T17:19:54.346Z,12.10
2022-10-07T17:21:29.474Z,15.87
2022-10-07T17:23:01.938Z,13.10
2022-10-07T17:24:34.379Z,14.90
2022-10-07T17:26:09.949Z,14.43
2022-10-07T17:27:42.196Z,14.95
2022-10-07T17:29:18.523Z,13.20
2022-10-07T17:30:51.066Z,15.00
2022-10-07T17:32:27.576Z,12.93
2022-10-07T17:34:00.213Z,12.95
2022-10-07T17:35:35.604Z,17.67
2022-10-07T17:37:11.284Z,10.38
2022-10-07T17:38:45.496Z,10.25
2022-10-07T17:41:50.174Z,11.18
2022-10-07T17:43:22.504Z,9.75
2022-10-07T17:44:55.551Z,10.60
2022-10-07T17:46:29.745Z,11.20
2022-10-07T17:48:03.872Z,10.27
2022-10-07T17:49:36.673Z,10.45
2022-10-07T17:51:09.090Z,11.38
2022-10-07T17:52:42.092Z,10.27
2022-10-07T17:54:15.010Z,10.23
2022-10-07T17:55:53.092Z,10.52
2022-10-07T17:57:26.018Z,9.85
2022-10-07T17:58:58.727Z,9.55
2022-10-07T18:00:32.345Z,11.38
2022-10-07T18:02:05.683Z,8.90
2022-10-07T18:03:38.654Z,11.40
2022-10-07T18:05:11.693Z,8.23
2022-10-07T18:06:44.082Z,9.98
2022-10-07T18:08:16.299Z,10.65
2022-10-07T18:09:48.321Z,8.45
2022-10-07T18:11:20.464Z,8.60
2022-10-07T18:13:10.944Z,8.82
2022-10-07T18:16:16.134Z,9.65
2022-10-07T18:17:52.159Z,12.33
2022-10-07T18:19:25.276Z,10.68
2022-10-07T18:21:04.606Z,11.50
2022-10-07T18:22:36.843Z,9.43
2022-10-07T18:24:09.235Z,10.43
2022-10-07T18:25:41.324Z,8.88
2022-10-07T18:27:13.897Z,10.23
2022-10-07T18:28:49.463Z,9.75
2022-10-07T18:30:21.753Z,9.32
2022-10-07T18:31:54.131Z,8.57
2022-10-07T18:33:26.410Z,9.45
2022-10-07T18:34:58.488Z,8.07
2022-10-07T18:36:30.604Z,9.15
2022-10-07T18:38:02.759Z,9.05
2022-10-07T18:39:34.851Z,11.48
2022-10-07T18:41:14.739Z,8.32
2022-10-07T18:42:47.073Z,8.93
2022-10-07T18:45:59.149Z,9.18
2022-10-07T18:47:31.338Z,9.60
2022-10-07T18:49:03.624Z,9.77
2022-10-07T18:50:35.797Z,8.18
2022-10-07T18:52:08.049Z,10.48
2022-10-07T18:53:42.148Z,9.75
2022-10-07T18:55:14.239Z,9.50
2022-10-07T18:56:50.309Z,12.40
2022-10-07T18:58:22.474Z,8.35
2022-10-07T18:59:54.727Z,8.70
2022-10-07T19:01:30.521Z,11.57
2022-10-07T19:03:02.693Z,9.40
2022-10-07T19:04:35.083Z,10.18
2022-10-07T19:06:12.664Z,9.68
2022-10-07T19:07:44.970Z,9.88
2022-10-07T19:09:19.597Z,8.93
2022-10-07T19:10:51.879Z,8.27
2022-10-07T19:12:50.168Z,9.15
2022-10-07T19:14:26.174Z,11.18
2022-10-07T19:16:03.109Z,8.00
2022-10-07T19:17:35.162Z,9.90
2022-10-07T19:19:14.105Z,10.48
2022-10-07T19:20:58.390Z,9.02
2022-10-07T19:22:30.621Z,9.85
2022-10-07T19:24:03.783Z,8.05
2022-10-07T19:25:48.379Z,11.95
2022-10-07T19:27:20.643Z,10.60
2022-10-07T19:28:53.992Z,8.63
2022-10-07T19:30:26.254Z,10.23
2022-10-07T19:31:59.177Z,10.25
2022-10-07T19:33:31.686Z,9.75
2022-10-07T19:35:06.630Z,8.68
2022-10-07T19:36:40.720Z,12.52
2022-10-07T19:38:13.725Z,8.68
2022-10-07T19:39:45.995Z,11.10
2022-10-07T19:41:19.680Z,8.82
2022-10-07T19:42:52.010Z,9.95
2022-10-07T19:44:24.289Z,8.75
2022-10-07T19:46:01.857Z,9.80
2022-10-07T19:47:37.107Z,10.07
2022-10-07T19:49:10.544Z,9.32
2022-10-07T19:52:15.129Z,9.98
2022-10-07T19:53:48.059Z,10.85
2022-10-07T19:55:20.174Z,9.40
2022-10-07T19:56:52.494Z,11.25
2022-10-07T19:58:24.974Z,9.75
2022-10-07T19:59:57.199Z,12.25
2022-10-07T20:01:32.571Z,12.18
2022-10-07T20:03:05.032Z,12.43
2022-10-07T20:04:37.163Z,10.10
2022-10-07T20:06:10.373Z,10.90
2022-10-07T20:07:42.604Z,10.32
2022-10-07T20:09:16.655Z,9.77
2022-10-07T20:10:48.736Z,10.65
2022-10-07T20:12:20.868Z,10.15
2022-10-07T20:13:54.691Z,9.48
2022-10-07T20:15:26.859Z,10.65
2022-10-07T20:16:58.924Z,9.30
2022-10-07T20:18:31.949Z,11.07
2022-10-07T20:20:04.221Z,9.57
2022-10-07T20:21:38.056Z,9.98
2022-10-07T20:23:10.313Z,10.02
2022-10-07T20:24:42.361Z,10.05
2022-10-07T20:26:19.593Z,10.15
2022-10-07T20:27:51.654Z,11.32
2022-10-07T20:29:25.187Z,11.07
2022-10-07T20:31:02.660Z,10.35
2022-10-07T20:32:35.908Z,10.10
2022-10-07T20:34:10.482Z,10.60
2022-10-07T20:35:42.540Z,10.48
2022-10-07T20:37:14.836Z,9.00
2022-10-07T20:39:05.190Z,11.23
2022-10-07T20:40:55.770Z,10.02
2022-10-07T20:42:29.866Z,11.93
2022-10-07T20:44:02.397Z,9.93
2022-10-07T20:45:54.526Z,10.43
2022-10-07T20:47:30.283Z,9.77
2022-10-07T20:49:02.309Z,12.35
2022-10-07T20:50:34.480Z,12.93
2022-10-07T20:52:17.027Z,10.00
2022-10-07T20:53:50.267Z,10.45
2022-10-07T20:55:22.406Z,10.38
2022-10-07T20:56:59.205Z,12.13
2022-10-07T20:58:37.820Z,11.50
2022-10-07T21:00:16.647Z,11.35
2022-10-07T21:01:48.838Z,11.63
2022-10-07T21:03:21.459Z,9.80
2022-10-07T21:04:53.883Z,12.00
2022-10-07T21:06:25.925Z,10.15
2022-10-07T21:07:58.146Z,9.80
2022-10-07T21:09:31.240Z,12.48
2022-10-07T21:11:05.020Z,12.38
2022-10-07T21:12:37.009Z,9.52
2022-10-07T21:14:09.992Z,11.43
2022-10-07T21:15:42.877Z,9.18
2022-10-07T21:17:15.847Z,9.85
2022-10-07T21:18:48.030Z,10.70
2022-10-07T21:20:20.948Z,10.23
2022-10-07T21:21:54.091Z,10.45
2022-10-07T21:23:26.416Z,10.40
2022-10-07T21:24:58.989Z,9.63
2022-10-07T21:26:31.350Z,10.87
2022-10-07T21:28:03.480Z,11.30
2022-10-07T21:29:40.436Z,10.05
2022-10-07T21:31:17.796Z,12.43
2022-10-07T21:32:50.434Z,10.15
2022-10-07T21:34:22.757Z,11.27
2022-10-07T21:36:01.661Z,9.85
2022-10-07T21:37:33.762Z,11.18
2022-10-07T21:39:06.325Z,14.70
2022-10-07T21:40:38.396Z,11.07
2022-10-07T21:42:10.610Z,9.85
2022-10-07T21:43:44.274Z,9.73
2022-10-07T21:45:16.244Z,15.00
2022-10-07T21:46:48.317Z,8.68
2022-10-07T21:48:20.710Z,9.57
2022-10-07T21:49:52.736Z,9.35
2022-10-07T21:53:14.508Z,9.40
2022-10-07T21:54:46.491Z,9.23
2022-10-07T21:56:18.658Z,10.25
2022-10-07T21:57:51.286Z,9.73
2022-10-07T21:59:23.366Z,10.20
2022-10-07T22:00:55.365Z,9.35
2022-10-07T22:02:29.509Z,9.27
2022-10-07T22:04:04.237Z,9.32
2022-10-07T22:05:36.562Z,10.10
2022-10-07T22:07:31.965Z,10.80
2022-10-07T22:09:04.588Z,10.90
2022-10-07T22:10:36.561Z,13.18
2022-10-07T22:12:09.109Z,12.38
2022-10-07T22:13:43.989Z,17.63
2022-10-07T22:15:17.315Z,14.25
2022-10-07T22:16:50.158Z,16.20
2022-10-07T22:18:22.524Z,13.23
2022-10-07T22:19:54.634Z,13.43
2022-10-07T22:21:28.862Z,15.52
2022-10-07T22:23:01.912Z,16.40
2022-10-07T22:24:34.640Z,16.92
2022-10-07T22:26:21.966Z,17.73